sensor_id;sensor_type;location;lat;lon;timestamp;P1;durP1;ratioP1;P2;durP2;ratioP2
49384;SDS011;36795;45.028;38.968;2023-02-20T00:02:22;30.15;;;13.10;;
49384;SDS011;36795;45.028;38.968;2023-02-20T00:05:10;27.25;;;11.85;;
49384;SDS011;36795;45.028;38.968;2023-02-20T00:07:56;27.73;;;12.18;;
49384;SDS011;36795;45.028;38.968;2023-02-20T00:10:43;27.20;;;11.05;;
49384;SDS011;36795;45.028;38.968;2023-02-20T00:13:29;28.00;;;11.55;;
49384;SDS011;36795;45.028;38.968;2023-02-20T00:16:16;26.95;;;12.45;;
49384;SDS011;36795;45.028;38.968;2023-02-20T00:19:01;25.90;;;11.15;;
49384;SDS011;36795;45.028;38.968;2023-02-20T00:21:49;25.88;;;10.65;;
49384;SDS011;36795;45.028;38.968;2023-02-20T00:24:36;25.12;;;10.73;;
49384;SDS011;36795;45.028;38.968;2023-02-20T00:27:22;27.20;;;11.82;;
49384;SDS011;36795;45.028;38.968;2023-02-20T00:30:16;27.35;;;12.10;;
49384;SDS011;36795;45.028;38.968;2023-02-20T00:35:49;26.15;;;11.68;;
49384;SDS011;36795;45.028;38.968;2023-02-20T00:38:35;26.05;;;11.52;;
49384;SDS011;36795;45.028;38.968;2023-02-20T00:41:21;26.75;;;11.75;;
49384;SDS011;36795;45.028;38.968;2023-02-20T00:44:08;26.67;;;12.13;;
49384;SDS011;36795;45.028;38.968;2023-02-20T00:46:54;26.62;;;13.23;;
49384;SDS011;36795;45.028;38.968;2023-02-20T00:49:40;26.17;;;12.60;;
49384;SDS011;36795;45.028;38.968;2023-02-20T00:52:26;28.52;;;12.82;;
49384;SDS011;36795;45.028;38.968;2023-02-20T00:55:13;26.55;;;12.50;;
49384;SDS011;36795;45.028;38.968;2023-02-20T00:57:59;27.37;;;12.88;;
49384;SDS011;36795;45.028;38.968;2023-02-20T01:00:45;28.60;;;13.40;;
49384;SDS011;36795;45.028;38.968;2023-02-20T01:03:31;28.23;;;13.43;;
49384;SDS011;36795;45.028;38.968;2023-02-20T01:06:18;29.37;;;14.65;;
49384;SDS011;36795;45.028;38.968;2023-02-20T01:09:04;27.35;;;12.98;;
49384;SDS011;36795;45.028;38.968;2023-02-20T01:11:50;27.73;;;13.23;;
49384;SDS011;36795;45.028;38.968;2023-02-20T01:14:38;30.20;;;13.35;;
49384;SDS011;36795;45.028;38.968;2023-02-20T01:17:25;28.15;;;14.60;;
49384;SDS011;36795;45.028;38.968;2023-02-20T01:20:13;29.70;;;16.35;;
49384;SDS011;36795;45.028;38.968;2023-02-20T01:23:00;32.55;;;15.68;;
49384;SDS011;36795;45.028;38.968;2023-02-20T01:25:45;27.30;;;11.63;;
49384;SDS011;36795;45.028;38.968;2023-02-20T01:28:32;21.90;;;8.07;;
49384;SDS011;36795;45.028;38.968;2023-02-20T01:31:21;20.92;;;7.55;;
49384;SDS011;36795;45.028;38.968;2023-02-20T01:34:07;21.67;;;7.65;;
49384;SDS011;36795;45.028;38.968;2023-02-20T01:36:54;24.15;;;7.12;;
49384;SDS011;36795;45.028;38.968;2023-02-20T01:39:45;23.17;;;6.68;;
49384;SDS011;36795;45.028;38.968;2023-02-20T01:42:32;21.75;;;6.60;;
49384;SDS011;36795;45.028;38.968;2023-02-20T01:48:20;22.20;;;6.43;;
49384;SDS011;36795;45.028;38.968;2023-02-20T01:51:08;20.40;;;6.20;;
49384;SDS011;36795;45.028;38.968;2023-02-20T01:53:56;23.10;;;6.65;;
49384;SDS011;36795;45.028;38.968;2023-02-20T01:56:42;22.20;;;6.68;;
49384;SDS011;36795;45.028;38.968;2023-02-20T01:59:30;23.92;;;6.62;;
49384;SDS011;36795;45.028;38.968;2023-02-20T02:02:18;21.17;;;6.12;;
49384;SDS011;36795;45.028;38.968;2023-02-20T02:05:06;23.35;;;6.05;;
49384;SDS011;36795;45.028;38.968;2023-02-20T02:07:52;27.42;;;7.07;;
49384;SDS011;36795;45.028;38.968;2023-02-20T02:10:42;20.05;;;5.40;;
49384;SDS011;36795;45.028;38.968;2023-02-20T02:13:31;24.25;;;5.70;;
49384;SDS011;36795;45.028;38.968;2023-02-20T02:22:33;26.95;;;5.65;;
49384;SDS011;36795;45.028;38.968;2023-02-20T02:31:45;25.15;;;5.55;;
49384;SDS011;36795;45.028;38.968;2023-02-20T02:34:48;23.08;;;5.45;;
49384;SDS011;36795;45.028;38.968;2023-02-20T02:40:50;22.58;;;5.05;;
49384;SDS011;36795;45.028;38.968;2023-02-20T02:46:27;24.35;;;5.97;;
49384;SDS011;36795;45.028;38.968;2023-02-20T02:52:09;26.60;;;6.72;;
49384;SDS011;36795;45.028;38.968;2023-02-20T02:54:56;26.92;;;6.25;;
49384;SDS011;36795;45.028;38.968;2023-02-20T02:57:43;19.23;;;5.35;;
49384;SDS011;36795;45.028;38.968;2023-02-20T03:00:42;23.17;;;5.57;;
49384;SDS011;36795;45.028;38.968;2023-02-20T03:03:31;22.55;;;5.70;;
49384;SDS011;36795;45.028;38.968;2023-02-20T03:06:20;22.33;;;5.45;;
49384;SDS011;36795;45.028;38.968;2023-02-20T03:09:10;21.42;;;5.35;;
49384;SDS011;36795;45.028;38.968;2023-02-20T03:11:58;21.05;;;5.45;;
49384;SDS011;36795;45.028;38.968;2023-02-20T03:15:07;24.45;;;5.82;;
49384;SDS011;36795;45.028;38.968;2023-02-20T03:18:34;16.50;;;4.37;;
49384;SDS011;36795;45.028;38.968;2023-02-20T03:21:22;23.92;;;5.18;;
49384;SDS011;36795;45.028;38.968;2023-02-20T03:24:10;17.73;;;4.72;;
49384;SDS011;36795;45.028;38.968;2023-02-20T03:26:58;18.60;;;4.47;;
49384;SDS011;36795;45.028;38.968;2023-02-20T03:29:44;20.05;;;4.60;;
49384;SDS011;36795;45.028;38.968;2023-02-20T03:32:32;18.08;;;4.20;;
49384;SDS011;36795;45.028;38.968;2023-02-20T03:35:37;18.77;;;4.62;;
49384;SDS011;36795;45.028;38.968;2023-02-20T03:38:45;20.12;;;4.50;;
49384;SDS011;36795;45.028;38.968;2023-02-20T03:41:51;18.37;;;4.43;;
49384;SDS011;36795;45.028;38.968;2023-02-20T03:44:58;18.52;;;4.30;;
49384;SDS011;36795;45.028;38.968;2023-02-20T03:47:46;25.15;;;4.97;;
49384;SDS011;36795;45.028;38.968;2023-02-20T03:50:34;20.15;;;4.60;;
49384;SDS011;36795;45.028;38.968;2023-02-20T03:53:20;21.27;;;4.80;;
49384;SDS011;36795;45.028;38.968;2023-02-20T03:56:08;25.10;;;4.65;;
49384;SDS011;36795;45.028;38.968;2023-02-20T03:58:58;20.67;;;4.82;;
49384;SDS011;36795;45.028;38.968;2023-02-20T04:01:47;22.20;;;5.47;;
49384;SDS011;36795;45.028;38.968;2023-02-20T04:04:37;23.98;;;5.35;;
49384;SDS011;36795;45.028;38.968;2023-02-20T04:07:27;20.58;;;5.40;;
49384;SDS011;36795;45.028;38.968;2023-02-20T04:10:21;21.15;;;4.37;;
49384;SDS011;36795;45.028;38.968;2023-02-20T04:13:08;18.55;;;4.50;;
49384;SDS011;36795;45.028;38.968;2023-02-20T04:15:56;17.83;;;4.87;;
49384;SDS011;36795;45.028;38.968;2023-02-20T04:18:43;21.02;;;4.72;;
49384;SDS011;36795;45.028;38.968;2023-02-20T04:21:32;22.23;;;4.87;;
49384;SDS011;36795;45.028;38.968;2023-02-20T04:24:24;19.73;;;4.93;;
49384;SDS011;36795;45.028;38.968;2023-02-20T04:27:12;19.02;;;5.28;;
49384;SDS011;36795;45.028;38.968;2023-02-20T04:29:59;19.00;;;4.93;;
49384;SDS011;36795;45.028;38.968;2023-02-20T04:32:52;18.83;;;5.00;;
49384;SDS011;36795;45.028;38.968;2023-02-20T04:35:43;20.57;;;5.77;;
49384;SDS011;36795;45.028;38.968;2023-02-20T04:38:29;20.55;;;5.82;;
49384;SDS011;36795;45.028;38.968;2023-02-20T04:41:16;20.33;;;5.65;;
49384;SDS011;36795;45.028;38.968;2023-02-20T04:44:03;21.98;;;5.90;;
49384;SDS011;36795;45.028;38.968;2023-02-20T04:47:12;22.65;;;5.87;;
49384;SDS011;36795;45.028;38.968;2023-02-20T04:50:04;21.17;;;5.78;;
49384;SDS011;36795;45.028;38.968;2023-02-20T04:52:50;23.20;;;6.35;;
49384;SDS011;36795;45.028;38.968;2023-02-20T04:55:37;20.75;;;5.85;;
49384;SDS011;36795;45.028;38.968;2023-02-20T04:58:23;29.75;;;9.05;;
49384;SDS011;36795;45.028;38.968;2023-02-20T05:01:11;20.77;;;5.82;;
49384;SDS011;36795;45.028;38.968;2023-02-20T05:03:57;21.33;;;6.00;;
49384;SDS011;36795;45.028;38.968;2023-02-20T05:06:46;22.55;;;5.57;;
49384;SDS011;36795;45.028;38.968;2023-02-20T05:09:32;20.83;;;5.07;;
49384;SDS011;36795;45.028;38.968;2023-02-20T05:12:19;22.58;;;5.10;;
49384;SDS011;36795;45.028;38.968;2023-02-20T05:15:05;21.73;;;4.93;;
49384;SDS011;36795;45.028;38.968;2023-02-20T05:17:51;22.13;;;5.82;;
49384;SDS011;36795;45.028;38.968;2023-02-20T05:20:37;20.75;;;5.28;;
49384;SDS011;36795;45.028;38.968;2023-02-20T05:23:44;24.52;;;6.43;;
49384;SDS011;36795;45.028;38.968;2023-02-20T05:26:30;21.10;;;6.72;;
49384;SDS011;36795;45.028;38.968;2023-02-20T05:29:16;20.45;;;6.65;;
49384;SDS011;36795;45.028;38.968;2023-02-20T05:32:02;19.23;;;5.85;;
49384;SDS011;36795;45.028;38.968;2023-02-20T05:34:49;23.00;;;5.62;;
49384;SDS011;36795;45.028;38.968;2023-02-20T05:37:35;20.85;;;5.03;;
49384;SDS011;36795;45.028;38.968;2023-02-20T05:40:21;22.15;;;6.07;;
49384;SDS011;36795;45.028;38.968;2023-02-20T05:43:08;21.50;;;5.85;;
49384;SDS011;36795;45.028;38.968;2023-02-20T05:45:54;19.62;;;5.05;;
49384;SDS011;36795;45.028;38.968;2023-02-20T05:48:40;20.40;;;5.25;;
49384;SDS011;36795;45.028;38.968;2023-02-20T05:51:27;22.67;;;5.03;;
49384;SDS011;36795;45.028;38.968;2023-02-20T05:54:13;20.35;;;5.07;;
49384;SDS011;36795;45.028;38.968;2023-02-20T05:57:03;18.62;;;4.30;;
49384;SDS011;36795;45.028;38.968;2023-02-20T05:59:49;18.50;;;4.82;;
49384;SDS011;36795;45.028;38.968;2023-02-20T06:02:36;15.07;;;3.78;;
49384;SDS011;36795;45.028;38.968;2023-02-20T06:05:22;13.40;;;3.10;;
49384;SDS011;36795;45.028;38.968;2023-02-20T06:08:10;17.83;;;4.55;;
49384;SDS011;36795;45.028;38.968;2023-02-20T06:10:56;10.13;;;2.92;;
49384;SDS011;36795;45.028;38.968;2023-02-20T06:13:43;14.70;;;3.35;;
49384;SDS011;36795;45.028;38.968;2023-02-20T06:16:30;14.73;;;3.70;;
49384;SDS011;36795;45.028;38.968;2023-02-20T06:19:19;13.80;;;3.67;;
49384;SDS011;36795;45.028;38.968;2023-02-20T06:22:06;14.77;;;3.55;;
49384;SDS011;36795;45.028;38.968;2023-02-20T06:24:52;15.15;;;3.67;;
49384;SDS011;36795;45.028;38.968;2023-02-20T06:27:39;15.55;;;3.95;;
49384;SDS011;36795;45.028;38.968;2023-02-20T06:30:25;13.43;;;3.17;;
49384;SDS011;36795;45.028;38.968;2023-02-20T06:33:11;10.88;;;2.47;;
49384;SDS011;36795;45.028;38.968;2023-02-20T06:35:58;13.27;;;3.40;;
49384;SDS011;36795;45.028;38.968;2023-02-20T06:38:46;10.85;;;2.67;;
49384;SDS011;36795;45.028;38.968;2023-02-20T06:41:32;12.27;;;2.97;;
49384;SDS011;36795;45.028;38.968;2023-02-20T06:44:19;8.57;;;2.70;;
49384;SDS011;36795;45.028;38.968;2023-02-20T06:47:05;9.23;;;2.65;;
49384;SDS011;36795;45.028;38.968;2023-02-20T06:49:53;11.73;;;3.47;;
49384;SDS011;36795;45.028;38.968;2023-02-20T06:52:39;9.98;;;2.67;;
49384;SDS011;36795;45.028;38.968;2023-02-20T06:55:25;9.48;;;2.22;;
49384;SDS011;36795;45.028;38.968;2023-02-20T06:58:11;9.90;;;2.55;;
49384;SDS011;36795;45.028;38.968;2023-02-20T07:00:58;7.97;;;2.50;;
49384;SDS011;36795;45.028;38.968;2023-02-20T07:03:45;8.88;;;2.62;;
49384;SDS011;36795;45.028;38.968;2023-02-20T07:06:32;10.32;;;2.75;;
49384;SDS011;36795;45.028;38.968;2023-02-20T07:09:18;11.27;;;2.42;;
49384;SDS011;36795;45.028;38.968;2023-02-20T07:12:05;12.60;;;2.72;;
49384;SDS011;36795;45.028;38.968;2023-02-20T07:14:51;13.27;;;3.10;;
49384;SDS011;36795;45.028;38.968;2023-02-20T07:17:37;10.63;;;2.70;;
49384;SDS011;36795;45.028;38.968;2023-02-20T07:20:23;14.43;;;3.30;;
49384;SDS011;36795;45.028;38.968;2023-02-20T07:23:12;9.35;;;2.95;;
49384;SDS011;36795;45.028;38.968;2023-02-20T07:25:59;9.85;;;3.03;;
49384;SDS011;36795;45.028;38.968;2023-02-20T07:28:47;10.00;;;2.60;;
49384;SDS011;36795;45.028;38.968;2023-02-20T07:31:33;14.98;;;4.55;;
49384;SDS011;36795;45.028;38.968;2023-02-20T07:34:20;12.45;;;3.65;;
49384;SDS011;36795;45.028;38.968;2023-02-20T07:37:06;14.87;;;4.15;;
49384;SDS011;36795;45.028;38.968;2023-02-20T07:39:52;15.27;;;4.55;;
49384;SDS011;36795;45.028;38.968;2023-02-20T07:42:40;19.00;;;4.95;;
49384;SDS011;36795;45.028;38.968;2023-02-20T07:45:28;17.02;;;5.03;;
49384;SDS011;36795;45.028;38.968;2023-02-20T07:48:14;16.27;;;4.32;;
49384;SDS011;36795;45.028;38.968;2023-02-20T07:51:00;18.83;;;4.22;;
49384;SDS011;36795;45.028;38.968;2023-02-20T07:53:47;16.50;;;4.62;;
49384;SDS011;36795;45.028;38.968;2023-02-20T07:56:34;18.83;;;4.47;;
49384;SDS011;36795;45.028;38.968;2023-02-20T07:59:20;15.82;;;4.32;;
49384;SDS011;36795;45.028;38.968;2023-02-20T08:02:07;13.48;;;3.80;;
49384;SDS011;36795;45.028;38.968;2023-02-20T08:04:53;12.68;;;3.97;;
49384;SDS011;36795;45.028;38.968;2023-02-20T08:07:43;13.75;;;4.12;;
49384;SDS011;36795;45.028;38.968;2023-02-20T08:10:30;14.05;;;4.15;;
49384;SDS011;36795;45.028;38.968;2023-02-20T08:13:16;14.27;;;4.07;;
49384;SDS011;36795;45.028;38.968;2023-02-20T08:16:03;14.57;;;4.05;;
49384;SDS011;36795;45.028;38.968;2023-02-20T08:18:49;9.85;;;3.00;;
49384;SDS011;36795;45.028;38.968;2023-02-20T08:21:36;12.50;;;4.00;;
49384;SDS011;36795;45.028;38.968;2023-02-20T08:24:21;10.75;;;3.25;;
49384;SDS011;36795;45.028;38.968;2023-02-20T08:27:08;10.98;;;3.72;;
49384;SDS011;36795;45.028;38.968;2023-02-20T08:29:54;10.40;;;3.20;;
49384;SDS011;36795;45.028;38.968;2023-02-20T08:32:40;15.18;;;3.53;;
49384;SDS011;36795;45.028;38.968;2023-02-20T08:35:26;12.23;;;3.80;;
49384;SDS011;36795;45.028;38.968;2023-02-20T08:38:24;15.25;;;3.90;;
49384;SDS011;36795;45.028;38.968;2023-02-20T08:41:10;12.90;;;3.62;;
49384;SDS011;36795;45.028;38.968;2023-02-20T08:43:57;11.48;;;3.00;;
49384;SDS011;36795;45.028;38.968;2023-02-20T08:46:45;11.12;;;2.95;;
49384;SDS011;36795;45.028;38.968;2023-02-20T08:49:31;10.90;;;3.15;;
49384;SDS011;36795;45.028;38.968;2023-02-20T08:52:18;9.20;;;2.78;;
49384;SDS011;36795;45.028;38.968;2023-02-20T08:55:04;10.75;;;2.83;;
49384;SDS011;36795;45.028;38.968;2023-02-20T08:57:50;11.00;;;3.05;;
49384;SDS011;36795;45.028;38.968;2023-02-20T09:00:37;14.98;;;3.17;;
49384;SDS011;36795;45.028;38.968;2023-02-20T09:03:23;11.43;;;3.30;;
49384;SDS011;36795;45.028;38.968;2023-02-20T09:06:15;11.93;;;2.95;;
49384;SDS011;36795;45.028;38.968;2023-02-20T09:09:03;7.75;;;2.90;;
49384;SDS011;36795;45.028;38.968;2023-02-20T09:11:58;14.05;;;3.20;;
49384;SDS011;36795;45.028;38.968;2023-02-20T09:14:44;9.93;;;3.22;;
49384;SDS011;36795;45.028;38.968;2023-02-20T09:17:31;9.43;;;3.10;;
49384;SDS011;36795;45.028;38.968;2023-02-20T09:20:18;13.10;;;3.62;;
49384;SDS011;36795;45.028;38.968;2023-02-20T09:23:08;18.58;;;4.82;;
49384;SDS011;36795;45.028;38.968;2023-02-20T09:25:56;21.55;;;6.10;;
49384;SDS011;36795;45.028;38.968;2023-02-20T09:28:47;17.95;;;5.95;;
49384;SDS011;36795;45.028;38.968;2023-02-20T09:31:33;24.48;;;6.82;;
49384;SDS011;36795;45.028;38.968;2023-02-20T09:34:19;19.87;;;6.28;;
49384;SDS011;36795;45.028;38.968;2023-02-20T09:37:05;17.08;;;4.75;;
49384;SDS011;36795;45.028;38.968;2023-02-20T09:39:52;15.93;;;4.37;;
49384;SDS011;36795;45.028;38.968;2023-02-20T09:45:46;12.13;;;3.78;;
49384;SDS011;36795;45.028;38.968;2023-02-20T09:48:46;14.87;;;3.55;;
49384;SDS011;36795;45.028;38.968;2023-02-20T09:51:37;18.55;;;4.40;;
49384;SDS011;36795;45.028;38.968;2023-02-20T09:54:29;13.30;;;3.90;;
49384;SDS011;36795;45.028;38.968;2023-02-20T09:57:19;23.42;;;8.82;;
49384;SDS011;36795;45.028;38.968;2023-02-20T10:00:09;15.13;;;4.15;;
49384;SDS011;36795;45.028;38.968;2023-02-20T10:03:12;14.43;;;4.00;;
49384;SDS011;36795;45.028;38.968;2023-02-20T10:06:00;7.70;;;2.65;;
49384;SDS011;36795;45.028;38.968;2023-02-20T10:08:48;7.62;;;2.47;;
49384;SDS011;36795;45.028;38.968;2023-02-20T10:14:30;10.35;;;2.60;;
49384;SDS011;36795;45.028;38.968;2023-02-20T10:25:58;7.85;;;2.20;;
49384;SDS011;36795;45.028;38.968;2023-02-20T10:28:48;14.73;;;5.25;;
49384;SDS011;36795;45.028;38.968;2023-02-20T10:31:48;13.35;;;3.25;;
49384;SDS011;36795;45.028;38.968;2023-02-20T10:34:57;15.23;;;4.53;;
49384;SDS011;36795;45.028;38.968;2023-02-20T10:37:45;8.02;;;2.37;;
49384;SDS011;36795;45.028;38.968;2023-02-20T10:40:38;10.63;;;2.95;;
49384;SDS011;36795;45.028;38.968;2023-02-20T10:43:36;9.48;;;3.08;;
49384;SDS011;36795;45.028;38.968;2023-02-20T10:46:38;12.63;;;4.03;;
49384;SDS011;36795;45.028;38.968;2023-02-20T10:49:32;12.25;;;3.10;;
49384;SDS011;36795;45.028;38.968;2023-02-20T10:52:20;11.98;;;3.95;;
49384;SDS011;36795;45.028;38.968;2023-02-20T10:55:24;13.10;;;3.60;;
49384;SDS011;36795;45.028;38.968;2023-02-20T10:58:16;11.45;;;3.10;;
49384;SDS011;36795;45.028;38.968;2023-02-20T11:01:04;12.60;;;3.70;;
49384;SDS011;36795;45.028;38.968;2023-02-20T11:07:17;10.05;;;3.03;;
49384;SDS011;36795;45.028;38.968;2023-02-20T11:10:05;12.77;;;2.90;;
49384;SDS011;36795;45.028;38.968;2023-02-20T11:12:55;9.75;;;3.30;;
49384;SDS011;36795;45.028;38.968;2023-02-20T11:15:44;12.57;;;3.75;;
49384;SDS011;36795;45.028;38.968;2023-02-20T11:18:31;13.13;;;4.28;;
49384;SDS011;36795;45.028;38.968;2023-02-20T11:27:21;11.73;;;3.83;;
49384;SDS011;36795;45.028;38.968;2023-02-20T11:33:04;12.40;;;3.97;;
49384;SDS011;36795;45.028;38.968;2023-02-20T11:35:58;10.38;;;3.37;;
49384;SDS011;36795;45.028;38.968;2023-02-20T11:38:57;10.85;;;3.70;;
49384;SDS011;36795;45.028;38.968;2023-02-20T11:41:44;10.70;;;3.25;;
49384;SDS011;36795;45.028;38.968;2023-02-20T11:44:30;12.75;;;4.12;;
49384;SDS011;36795;45.028;38.968;2023-02-20T11:47:21;18.17;;;6.05;;
49384;SDS011;36795;45.028;38.968;2023-02-20T11:50:09;17.60;;;4.25;;
49384;SDS011;36795;45.028;38.968;2023-02-20T11:53:00;13.27;;;3.80;;
49384;SDS011;36795;45.028;38.968;2023-02-20T11:55:49;18.02;;;3.78;;
49384;SDS011;36795;45.028;38.968;2023-02-20T11:58:51;11.77;;;4.22;;
49384;SDS011;36795;45.028;38.968;2023-02-20T12:01:38;9.27;;;3.10;;
49384;SDS011;36795;45.028;38.968;2023-02-20T12:04:32;33.40;;;18.33;;
49384;SDS011;36795;45.028;38.968;2023-02-20T12:07:25;17.75;;;4.68;;
49384;SDS011;36795;45.028;38.968;2023-02-20T12:10:20;14.25;;;4.12;;
49384;SDS011;36795;45.028;38.968;2023-02-20T12:13:10;13.77;;;4.45;;
49384;SDS011;36795;45.028;38.968;2023-02-20T12:25:20;20.48;;;6.50;;
49384;SDS011;36795;45.028;38.968;2023-02-20T12:36:49;21.05;;;7.28;;
49384;SDS011;36795;45.028;38.968;2023-02-20T12:46:22;23.67;;;8.30;;
49384;SDS011;36795;45.028;38.968;2023-02-20T12:52:05;21.33;;;7.18;;
49384;SDS011;36795;45.028;38.968;2023-02-20T12:57:43;21.05;;;7.57;;
49384;SDS011;36795;45.028;38.968;2023-02-20T13:00:31;21.12;;;6.95;;
49384;SDS011;36795;45.028;38.968;2023-02-20T13:03:20;23.20;;;7.25;;
49384;SDS011;36795;45.028;38.968;2023-02-20T13:06:15;23.75;;;8.52;;
49384;SDS011;36795;45.028;38.968;2023-02-20T13:09:08;20.52;;;7.15;;
49384;SDS011;36795;45.028;38.968;2023-02-20T13:12:05;21.83;;;7.47;;
49384;SDS011;36795;45.028;38.968;2023-02-20T13:15:01;22.37;;;7.68;;
49384;SDS011;36795;45.028;38.968;2023-02-20T13:20:51;23.98;;;8.00;;
49384;SDS011;36795;45.028;38.968;2023-02-20T13:23:38;20.98;;;7.80;;
49384;SDS011;36795;45.028;38.968;2023-02-20T13:29:28;20.00;;;7.45;;
49384;SDS011;36795;45.028;38.968;2023-02-20T13:38:28;20.48;;;7.37;;
49384;SDS011;36795;45.028;38.968;2023-02-20T13:41:14;21.77;;;7.40;;
49384;SDS011;36795;45.028;38.968;2023-02-20T13:45:31;22.33;;;7.03;;
49384;SDS011;36795;45.028;38.968;2023-02-20T13:47:32;21.05;;;7.12;;
49384;SDS011;36795;45.028;38.968;2023-02-20T13:50:29;21.55;;;7.50;;
49384;SDS011;36795;45.028;38.968;2023-02-20T13:53:18;20.35;;;6.97;;
49384;SDS011;36795;45.028;38.968;2023-02-20T13:56:11;22.70;;;6.85;;
49384;SDS011;36795;45.028;38.968;2023-02-20T13:58:59;21.67;;;7.60;;
49384;SDS011;36795;45.028;38.968;2023-02-20T14:04:55;20.42;;;7.45;;
49384;SDS011;36795;45.028;38.968;2023-02-20T14:07:43;20.17;;;7.30;;
49384;SDS011;36795;45.028;38.968;2023-02-20T14:10:34;21.08;;;6.93;;
49384;SDS011;36795;45.028;38.968;2023-02-20T14:13:21;23.52;;;9.27;;
49384;SDS011;36795;45.028;38.968;2023-02-20T14:19:26;20.08;;;6.82;;
49384;SDS011;36795;45.028;38.968;2023-02-20T14:22:26;20.12;;;5.93;;
49384;SDS011;36795;45.028;38.968;2023-02-20T14:28:04;18.33;;;5.53;;
49384;SDS011;36795;45.028;38.968;2023-02-20T14:31:03;20.50;;;6.30;;
49384;SDS011;36795;45.028;38.968;2023-02-20T14:33:59;19.42;;;6.62;;
49384;SDS011;36795;45.028;38.968;2023-02-20T14:39:43;19.77;;;6.50;;
49384;SDS011;36795;45.028;38.968;2023-02-20T14:42:31;23.67;;;6.95;;
49384;SDS011;36795;45.028;38.968;2023-02-20T14:45:22;23.08;;;6.05;;
49384;SDS011;36795;45.028;38.968;2023-02-20T14:48:20;21.75;;;7.03;;
49384;SDS011;36795;45.028;38.968;2023-02-20T14:51:12;20.98;;;6.57;;
49384;SDS011;36795;45.028;38.968;2023-02-20T14:53:59;21.23;;;6.32;;
49384;SDS011;36795;45.028;38.968;2023-02-20T14:56:46;21.45;;;5.97;;
49384;SDS011;36795;45.028;38.968;2023-02-20T14:59:33;22.55;;;6.95;;
49384;SDS011;36795;45.028;38.968;2023-02-20T15:02:20;23.87;;;7.18;;
49384;SDS011;36795;45.028;38.968;2023-02-20T15:05:08;25.12;;;7.93;;
49384;SDS011;36795;45.028;38.968;2023-02-20T15:11:04;21.65;;;7.80;;
49384;SDS011;36795;45.028;38.968;2023-02-20T15:13:52;24.08;;;8.52;;
49384;SDS011;36795;45.028;38.968;2023-02-20T15:16:39;21.92;;;8.02;;
49384;SDS011;36795;45.028;38.968;2023-02-20T15:19:33;20.48;;;6.78;;
49384;SDS011;36795;45.028;38.968;2023-02-20T15:22:22;24.17;;;7.72;;
49384;SDS011;36795;45.028;38.968;2023-02-20T15:28:11;21.75;;;7.78;;
49384;SDS011;36795;45.028;38.968;2023-02-20T15:31:05;24.58;;;7.93;;
49384;SDS011;36795;45.028;38.968;2023-02-20T15:33:54;29.17;;;11.25;;
49384;SDS011;36795;45.028;38.968;2023-02-20T15:36:40;39.55;;;22.90;;
49384;SDS011;36795;45.028;38.968;2023-02-20T15:39:26;23.15;;;9.50;;
49384;SDS011;36795;45.028;38.968;2023-02-20T15:42:14;22.10;;;8.30;;
49384;SDS011;36795;45.028;38.968;2023-02-20T15:45:00;25.40;;;8.32;;
49384;SDS011;36795;45.028;38.968;2023-02-20T15:47:47;28.30;;;11.07;;
49384;SDS011;36795;45.028;38.968;2023-02-20T15:50:34;26.60;;;10.25;;
49384;SDS011;36795;45.028;38.968;2023-02-20T15:53:21;23.67;;;7.53;;
49384;SDS011;36795;45.028;38.968;2023-02-20T15:56:09;27.50;;;8.63;;
49384;SDS011;36795;45.028;38.968;2023-02-20T15:58:56;24.20;;;7.95;;
49384;SDS011;36795;45.028;38.968;2023-02-20T16:01:43;24.35;;;8.48;;
49384;SDS011;36795;45.028;38.968;2023-02-20T16:04:30;23.92;;;8.30;;
49384;SDS011;36795;45.028;38.968;2023-02-20T16:07:16;23.92;;;8.82;;
49384;SDS011;36795;45.028;38.968;2023-02-20T16:10:04;25.58;;;8.10;;
49384;SDS011;36795;45.028;38.968;2023-02-20T16:12:51;23.08;;;6.78;;
49384;SDS011;36795;45.028;38.968;2023-02-20T16:15:38;27.33;;;7.87;;
49384;SDS011;36795;45.028;38.968;2023-02-20T16:18:24;23.10;;;7.50;;
49384;SDS011;36795;45.028;38.968;2023-02-20T16:21:12;23.90;;;6.85;;
49384;SDS011;36795;45.028;38.968;2023-02-20T16:23:59;23.33;;;7.40;;
49384;SDS011;36795;45.028;38.968;2023-02-20T16:26:45;22.10;;;7.35;;
49384;SDS011;36795;45.028;38.968;2023-02-20T16:29:35;21.85;;;7.05;;
49384;SDS011;36795;45.028;38.968;2023-02-20T16:32:23;22.48;;;6.85;;
49384;SDS011;36795;45.028;38.968;2023-02-20T16:35:11;21.75;;;6.75;;
49384;SDS011;36795;45.028;38.968;2023-02-20T16:37:57;24.40;;;7.40;;
49384;SDS011;36795;45.028;38.968;2023-02-20T16:40:45;23.92;;;7.78;;
49384;SDS011;36795;45.028;38.968;2023-02-20T16:43:33;24.63;;;7.97;;
49384;SDS011;36795;45.028;38.968;2023-02-20T16:46:19;24.95;;;7.60;;
49384;SDS011;36795;45.028;38.968;2023-02-20T16:49:06;20.55;;;6.50;;
49384;SDS011;36795;45.028;38.968;2023-02-20T16:51:52;23.92;;;6.50;;
49384;SDS011;36795;45.028;38.968;2023-02-20T16:54:53;21.92;;;6.78;;
49384;SDS011;36795;45.028;38.968;2023-02-20T16:57:40;21.52;;;6.32;;
49384;SDS011;36795;45.028;38.968;2023-02-20T17:00:30;21.33;;;6.45;;
49384;SDS011;36795;45.028;38.968;2023-02-20T17:03:18;22.02;;;6.28;;
49384;SDS011;36795;45.028;38.968;2023-02-20T17:06:04;22.27;;;5.80;;
49384;SDS011;36795;45.028;38.968;2023-02-20T17:08:50;22.05;;;6.25;;
49384;SDS011;36795;45.028;38.968;2023-02-20T17:11:36;21.98;;;5.85;;
49384;SDS011;36795;45.028;38.968;2023-02-20T17:14:22;18.67;;;4.80;;
49384;SDS011;36795;45.028;38.968;2023-02-20T17:17:09;23.67;;;6.00;;
49384;SDS011;36795;45.028;38.968;2023-02-20T17:19:56;27.55;;;11.60;;
49384;SDS011;36795;45.028;38.968;2023-02-20T17:22:42;19.77;;;4.85;;
49384;SDS011;36795;45.028;38.968;2023-02-20T17:25:30;22.23;;;5.62;;
49384;SDS011;36795;45.028;38.968;2023-02-20T17:28:17;24.08;;;5.90;;
49384;SDS011;36795;45.028;38.968;2023-02-20T17:31:04;20.42;;;5.12;;
49384;SDS011;36795;45.028;38.968;2023-02-20T17:33:50;22.25;;;5.00;;
49384;SDS011;36795;45.028;38.968;2023-02-20T17:36:36;17.10;;;4.78;;
49384;SDS011;36795;45.028;38.968;2023-02-20T17:39:23;19.33;;;5.07;;
49384;SDS011;36795;45.028;38.968;2023-02-20T17:42:09;24.58;;;7.75;;
49384;SDS011;36795;45.028;38.968;2023-02-20T17:44:56;24.77;;;6.68;;
49384;SDS011;36795;45.028;38.968;2023-02-20T17:47:43;20.17;;;6.03;;
49384;SDS011;36795;45.028;38.968;2023-02-20T17:50:30;20.85;;;5.85;;
49384;SDS011;36795;45.028;38.968;2023-02-20T17:53:17;24.42;;;5.82;;
49384;SDS011;36795;45.028;38.968;2023-02-20T17:56:04;24.25;;;5.37;;
49384;SDS011;36795;45.028;38.968;2023-02-20T17:58:51;21.00;;;5.70;;
49384;SDS011;36795;45.028;38.968;2023-02-20T18:01:37;19.20;;;5.07;;
49384;SDS011;36795;45.028;38.968;2023-02-20T18:04:24;23.02;;;6.00;;
49384;SDS011;36795;45.028;38.968;2023-02-20T18:07:10;22.30;;;5.85;;
49384;SDS011;36795;45.028;38.968;2023-02-20T18:09:57;19.40;;;5.50;;
49384;SDS011;36795;45.028;38.968;2023-02-20T18:12:44;20.00;;;5.30;;
49384;SDS011;36795;45.028;38.968;2023-02-20T18:15:46;21.20;;;5.80;;
49384;SDS011;36795;45.028;38.968;2023-02-20T18:18:32;15.73;;;3.65;;
49384;SDS011;36795;45.028;38.968;2023-02-20T18:21:20;21.55;;;5.12;;
49384;SDS011;36795;45.028;38.968;2023-02-20T18:24:08;19.50;;;5.28;;